Time,TemperatureF,DewpointF,PressureIn,WindDirection,WindDirectionDegrees,WindSpeedMPH,WindSpeedGustMPH,Humidity,HourlyPrecipIn,Conditions,Clouds,dailyrainin,SoftwareType,DateUTC
2013-02-09 00:01:00,25.0,19.0,-100.00,WSW,243,15.0,20.0,78,-99.99,,,-99.99,,2013-02-09 07:01:00,
2013-02-09 00:11:00,24.0,19.0,-100.00,WSW,250,15.0,23.0,80,-99.99,,,-99.99,,2013-02-09 07:11:00,
2013-02-09 00:21:00,24.0,19.0,-100.00,WSW,250,15.0,23.0,80,-99.99,,,-99.99,,2013-02-09 07:21:00,
2013-02-09 00:31:00,24.0,19.0,-100.00,WSW,250,15.0,23.0,80,-99.99,,,-99.99,,2013-02-09 07:31:00,
2013-02-09 00:42:00,23.0,20.0,-100.00,WSW,253,12.0,20.0,86,-99.99,,,-99.99,,2013-02-09 07:42:00,
2013-02-09 00:51:00,23.0,20.0,-100.00,WSW,253,12.0,20.0,86,-99.99,,,-99.99,,2013-02-09 07:51:00,
2013-02-09 01:01:00,23.0,21.0,-100.00,WSW,257,8.0,13.0,93,-99.99,,,-99.99,,2013-02-09 08:01:00,
2013-02-09 01:11:00,23.0,21.0,-100.00,WSW,257,6.0,11.0,93,-99.99,,,-99.99,,2013-02-09 08:11:00,
2013-02-09 01:21:00,23.0,21.0,-100.00,West,272,9.0,21.0,91,-99.99,,,-99.99,,2013-02-09 08:21:00,
2013-02-09 01:31:00,23.0,21.0,-100.00,West,272,9.0,21.0,91,-99.99,,,-99.99,,2013-02-09 08:31:00,
2013-02-09 01:41:00,23.0,21.0,-100.00,WSW,258,9.0,12.0,94,-99.99,,,-99.99,,2013-02-09 08:41:00,
2013-02-09 01:51:00,23.0,21.0,-100.00,WSW,258,9.0,12.0,94,-99.99,,,-99.99,,2013-02-09 08:51:00,
2013-02-09 02:02:00,23.0,21.0,-100.00,WSW,243,7.0,11.0,91,-99.99,,,-99.99,,2013-02-09 09:02:00,
2013-02-09 02:11:00,23.0,21.0,-100.00,WSW,243,7.0,11.0,91,-99.99,,,-99.99,,2013-02-09 09:11:00,
2013-02-09 02:21:00,23.0,21.0,-100.00,West,269,5.0,6.0,91,-99.99,,,-99.99,,2013-02-09 09:21:00,
2013-02-09 02:31:00,23.0,21.0,-100.00,West,269,5.0,6.0,91,-99.99,,,-99.99,,2013-02-09 09:31:00,
2013-02-09 02:41:00,23.0,20.0,-100.00,West,270,9.0,11.0,88,-99.99,,,-99.99,,2013-02-09 09:41:00,
2013-02-09 02:51:00,23.0,20.0,-100.00,West,270,9.0,11.0,88,-99.99,,,-99.99,,2013-02-09 09:51:00,
2013-02-09 03:01:00,23.0,21.0,-100.00,West,269,9.0,16.0,89,-99.99,,,-99.99,,2013-02-09 10:01:00,
2013-02-09 03:11:00,23.0,21.0,-100.00,WSW,257,7.0,11.0,92,-99.99,,,-99.99,,2013-02-09 10:11:00,
2013-02-09 03:21:00,23.0,21.0,-100.00,WSW,257,7.0,11.0,92,-99.99,,,-99.99,,2013-02-09 10:21:00,
2013-02-09 03:31:00,23.0,21.0,-100.00,SW,221,7.0,11.0,91,-99.99,,,-99.99,,2013-02-09 10:31:00,
2013-02-09 03:41:00,23.0,20.0,-100.00,SW,222,6.0,10.0,87,-99.99,,,-99.99,,2013-02-09 10:41:00,
2013-02-09 03:51:00,23.0,20.0,-100.00,SW,225,7.0,13.0,87,-99.99,,,-99.99,,2013-02-09 10:51:00,
2013-02-09 04:01:00,23.0,20.0,-100.00,SW,225,7.0,13.0,87,-99.99,,,-99.99,,2013-02-09 11:01:00,
2013-02-09 04:11:00,23.0,20.0,-100.00,SW,225,7.0,13.0,87,-99.99,,,-99.99,,2013-02-09 11:11:00,
2013-02-09 04:21:00,22.0,20.0,-100.00,SW,219,5.0,7.0,92,-99.99,,,-99.99,,2013-02-09 11:21:00,
2013-02-09 04:31:00,22.0,20.0,-100.00,SW,219,5.0,7.0,92,-99.99,,,-99.99,,2013-02-09 11:31:00,
2013-02-09 04:41:00,23.0,20.0,-100.00,West,269,8.0,16.0,89,-99.99,,,-99.99,,2013-02-09 11:41:00,
2013-02-09 04:52:00,23.0,20.0,-100.00,West,269,8.0,16.0,89,-99.99,,,-99.99,,2013-02-09 11:52:00,
2013-02-09 05:02:00,23.0,20.0,-100.00,West,265,11.0,17.0,88,-99.99,,,-99.99,,2013-02-09 12:02:00,
2013-02-09 05:11:00,23.0,20.0,-100.00,West,265,11.0,17.0,88,-99.99,,,-99.99,,2013-02-09 12:11:00,
2013-02-09 05:21:00,23.0,20.0,-100.00,West,265,11.0,17.0,88,-99.99,,,-99.99,,2013-02-09 12:21:00,
2013-02-09 05:32:00,22.0,21.0,-100.00,SW,234,4.0,7.0,94,-99.99,,,-99.99,,2013-02-09 12:32:00,
2013-02-09 05:41:00,22.0,21.0,-100.00,WSW,258,7.0,9.0,96,-99.99,,,-99.99,,2013-02-09 12:41:00,
2013-02-09 05:52:00,22.0,21.0,-100.00,WSW,258,7.0,9.0,96,-99.99,,,-99.99,,2013-02-09 12:52:00,
2013-02-09 06:01:00,21.0,21.0,-100.00,WSW,255,8.0,9.0,96,-99.99,,,-99.99,,2013-02-09 13:01:00,
2013-02-09 06:11:00,21.0,21.0,-100.00,WSW,255,8.0,9.0,96,-99.99,,,-99.99,,2013-02-09 13:11:00,
2013-02-09 06:21:00,21.0,21.0,-100.00,WSW,254,8.0,9.0,98,-99.99,,,-99.99,,2013-02-09 13:21:00,
2013-02-09 06:31:00,21.0,21.0,-100.00,West,272,6.0,7.0,98,-99.99,,,-99.99,,2013-02-09 13:31:00,
2013-02-09 06:42:00,21.0,21.0,-100.00,WSW,249,6.0,9.0,98,-99.99,,,-99.99,,2013-02-09 13:42:00,
2013-02-09 06:51:00,21.0,21.0,-100.00,WSW,249,6.0,9.0,98,-99.99,,,-99.99,,2013-02-09 13:51:00,
2013-02-09 07:01:00,22.0,21.0,-100.00,West,260,7.0,9.0,98,-99.99,,,-99.99,,2013-02-09 14:01:00,
2013-02-09 07:11:00,22.0,21.0,-100.00,West,260,7.0,9.0,98,-99.99,,,-99.99,,2013-02-09 14:11:00,
2013-02-09 07:21:00,21.0,20.0,-100.00,WSW,240,4.0,7.0,96,-99.99,,,-99.99,,2013-02-09 14:21:00,
2013-02-09 07:31:00,21.0,20.0,-100.00,WSW,240,4.0,7.0,96,-99.99,,,-99.99,,2013-02-09 14:31:00,
2013-02-09 07:41:00,21.0,21.0,-100.00,West,278,7.0,7.0,97,-99.99,,,-99.99,,2013-02-09 14:41:00,
2013-02-09 07:52:00,21.0,21.0,-100.00,West,278,7.0,7.0,97,-99.99,,,-99.99,,2013-02-09 14:52:00,
2013-02-09 08:01:00,21.0,21.0,-100.00,WSW,248,4.0,6.0,98,-99.99,,,-99.99,,2013-02-09 15:01:00,
2013-02-09 08:11:00,22.0,21.0,-100.00,West,266,6.0,7.0,98,-99.99,,,-99.99,,2013-02-09 15:11:00,
2013-02-09 08:21:00,22.0,21.0,-100.00,West,279,7.0,8.0,96,-99.99,,,-99.99,,2013-02-09 15:21:00,
2013-02-09 08:31:00,22.0,21.0,-100.00,West,279,7.0,8.0,96,-99.99,,,-99.99,,2013-02-09 15:31:00,
2013-02-09 08:41:00,22.0,22.0,-100.00,WSW,258,7.0,9.0,97,-99.99,,,-99.99,,2013-02-09 15:41:00,
2013-02-09 08:51:00,22.0,22.0,-100.00,WSW,258,7.0,9.0,97,-99.99,,,-99.99,,2013-02-09 15:51:00,
2013-02-09 09:01:00,22.0,22.0,-100.00,West,260,6.0,7.0,97,-99.99,,,-99.99,,2013-02-09 16:01:00,
2013-02-09 09:11:00,23.0,22.0,-100.00,West,273,7.0,7.0,96,-99.99,,,-99.99,,2013-02-09 16:11:00,
2013-02-09 09:21:00,23.0,21.0,-100.00,West,275,6.0,9.0,94,-99.99,,,-99.99,,2013-02-09 16:21:00,
2013-02-09 09:31:00,23.0,21.0,-100.00,West,278,8.0,10.0,93,-99.99,,,-99.99,,2013-02-09 16:31:00,
2013-02-09 09:41:00,23.0,21.0,-100.00,West,278,7.0,8.0,93,-99.99,,,-99.99,,2013-02-09 16:41:00,
2013-02-09 09:51:00,23.0,21.0,-100.00,West,281,7.0,8.0,92,-99.99,,,-99.99,,2013-02-09 16:51:00,
2013-02-09 10:01:00,23.0,21.0,-100.00,West,277,6.0,7.0,91,-99.99,,,-99.99,,2013-02-09 17:01:00,
2013-02-09 10:11:00,23.0,21.0,-100.00,West,275,5.0,5.0,90,-99.99,,,-99.99,,2013-02-09 17:11:00,
2013-02-09 10:21:00,23.0,21.0,-100.00,West,275,5.0,5.0,90,-99.99,,,-99.99,,2013-02-09 17:21:00,
2013-02-09 10:31:00,24.0,21.0,-100.00,West,272,4.0,4.0,87,-99.99,,,-99.99,,2013-02-09 17:31:00,
2013-02-09 10:41:00,25.0,20.0,-100.00,WSW,257,5.0,5.0,81,-99.99,,,-99.99,,2013-02-09 17:41:00,
2013-02-09 10:52:00,24.0,19.0,-100.00,WSW,238,4.0,7.0,82,-99.99,,,-99.99,,2013-02-09 17:52:00,
2013-02-09 11:01:00,24.0,19.0,-100.00,WSW,238,4.0,7.0,82,-99.99,,,-99.99,,2013-02-09 18:01:00,
2013-02-09 11:11:00,24.0,19.0,-100.00,WSW,238,4.0,7.0,82,-99.99,,,-99.99,,2013-02-09 18:11:00,
2013-02-09 11:22:00,26.0,20.0,-100.00,WSW,246,6.0,9.0,78,-99.99,,,-99.99,,2013-02-09 18:22:00,
2013-02-09 11:31:00,25.0,21.0,-100.00,WSW,255,9.0,11.0,84,-99.99,,,-99.99,,2013-02-09 18:31:00,
2013-02-09 11:41:00,25.0,21.0,-100.00,WSW,255,9.0,11.0,84,-99.99,,,-99.99,,2013-02-09 18:41:00,
2013-02-09 11:51:00,25.0,22.0,-100.00,West,266,9.0,15.0,88,-99.99,,,-99.99,,2013-02-09 18:51:00,
2013-02-09 12:01:00,25.0,21.0,-100.00,West,272,10.0,13.0,83,-99.99,,,-99.99,,2013-02-09 19:01:00,
2013-02-09 12:11:00,25.0,21.0,-100.00,West,262,10.0,13.0,85,-99.99,,,-99.99,,2013-02-09 19:11:00,
2013-02-09 12:22:00,25.0,21.0,-100.00,West,262,10.0,13.0,85,-99.99,,,-99.99,,2013-02-09 19:22:00,
2013-02-09 12:31:00,25.0,21.0,-100.00,West,259,9.0,12.0,83,-99.99,,,-99.99,,2013-02-09 19:31:00,
2013-02-09 12:41:00,25.0,20.0,-100.00,WSW,252,10.0,14.0,82,-99.99,,,-99.99,,2013-02-09 19:41:00,
2013-02-09 12:51:00,25.0,21.0,-100.00,WSW,246,9.0,14.0,82,-99.99,,,-99.99,,2013-02-09 19:51:00,
2013-02-09 13:01:00,25.0,20.0,-100.00,SW,236,11.0,14.0,80,-99.99,,,-99.99,,2013-02-09 20:01:00,
2013-02-09 13:11:00,25.0,22.0,-100.00,WSW,258,12.0,18.0,87,-99.99,,,-99.99,,2013-02-09 20:11:00,
2013-02-09 13:21:00,25.0,22.0,-100.00,West,261,10.0,16.0,88,-99.99,,,-99.99,,2013-02-09 20:21:00,
2013-02-09 13:31:00,25.0,21.0,-100.00,WSW,249,12.0,17.0,87,-99.99,,,-99.99,,2013-02-09 20:31:00,
2013-02-09 13:41:00,24.0,21.0,-100.00,WSW,242,14.0,17.0,86,-99.99,,,-99.99,,2013-02-09 20:41:00,
2013-02-09 13:52:00,25.0,21.0,-100.00,WSW,245,12.0,18.0,85,-99.99,,,-99.99,,2013-02-09 20:52:00,
2013-02-09 14:01:00,25.0,21.0,-100.00,WSW,245,12.0,18.0,85,-99.99,,,-99.99,,2013-02-09 21:01:00,
2013-02-09 14:11:00,25.0,21.0,-100.00,WSW,245,12.0,18.0,85,-99.99,,,-99.99,,2013-02-09 21:11:00,
2013-02-09 14:21:00,25.0,21.0,-100.00,WSW,251,13.0,16.0,84,-99.99,,,-99.99,,2013-02-09 21:21:00,
2013-02-09 14:31:00,25.0,22.0,-100.00,WSW,251,13.0,17.0,88,-99.99,,,-99.99,,2013-02-09 21:31:00,
2013-02-09 14:41:00,25.0,22.0,-100.00,WSW,251,13.0,17.0,88,-99.99,,,-99.99,,2013-02-09 21:41:00,
2013-02-09 14:52:00,23.0,22.0,-100.00,WSW,248,12.0,14.0,95,-99.99,,,-99.99,,2013-02-09 21:52:00,
2013-02-09 15:01:00,23.0,22.0,-100.00,WSW,248,12.0,14.0,95,-99.99,,,-99.99,,2013-02-09 22:01:00,
2013-02-09 15:11:00,24.0,23.0,-100.00,WSW,250,10.0,13.0,94,-99.99,,,-99.99,,2013-02-09 22:11:00,
2013-02-09 15:21:00,24.0,23.0,-100.00,WSW,250,10.0,13.0,94,-99.99,,,-99.99,,2013-02-09 22:21:00,
2013-02-09 15:31:00,24.0,22.0,-100.00,West,268,12.0,15.0,90,-99.99,,,-99.99,,2013-02-09 22:31:00,
2013-02-09 15:41:00,24.0,22.0,-100.00,West,268,12.0,15.0,90,-99.99,,,-99.99,,2013-02-09 22:41:00,
2013-02-09 15:51:00,24.0,22.0,-100.00,West,263,15.0,17.0,91,-99.99,,,-99.99,,2013-02-09 22:51:00,
2013-02-09 16:01:00,24.0,22.0,-100.00,West,263,15.0,17.0,91,-99.99,,,-99.99,,2013-02-09 23:01:00,
2013-02-09 16:11:00,23.0,21.0,-100.00,West,261,14.0,16.0,90,-99.99,,,-99.99,,2013-02-09 23:11:00,
2013-02-09 16:21:00,23.0,21.0,-100.00,West,261,14.0,16.0,90,-99.99,,,-99.99,,2013-02-09 23:21:00,
2013-02-09 16:31:00,23.0,21.0,-100.00,WSW,252,13.0,15.0,90,-99.99,,,-99.99,,2013-02-09 23:31:00,
2013-02-09 16:41:00,22.0,20.0,-100.00,WSW,251,14.0,17.0,91,-99.99,,,-99.99,,2013-02-09 23:41:00,
2013-02-09 16:52:00,22.0,20.0,-100.00,WSW,254,12.0,19.0,91,-99.99,,,-99.99,,2013-02-09 23:52:00,
2013-02-09 17:02:00,22.0,20.0,-100.00,WSW,246,12.0,16.0,91,-99.99,,,-99.99,,2013-02-10 00:02:00,
2013-02-09 17:11:00,22.0,20.0,-100.00,WSW,252,14.0,16.0,92,-99.99,,,-99.99,,2013-02-10 00:11:00,
2013-02-09 17:21:00,22.0,20.0,-100.00,West,277,10.0,14.0,92,-99.99,,,-99.99,,2013-02-10 00:21:00,
2013-02-09 17:31:00,22.0,19.0,-100.00,West,272,9.0,11.0,89,-99.99,,,-99.99,,2013-02-10 00:31:00,
2013-02-09 17:41:00,22.0,19.0,-100.00,West,279,10.0,11.0,88,-99.99,,,-99.99,,2013-02-10 00:41:00,
2013-02-09 17:51:00,21.0,19.0,-100.00,West,277,7.0,11.0,91,-99.99,,,-99.99,,2013-02-10 00:51:00,
2013-02-09 18:01:00,21.0,19.0,-100.00,West,277,7.0,11.0,91,-99.99,,,-99.99,,2013-02-10 01:01:00,
2013-02-09 18:11:00,22.0,19.0,-100.00,WSW,253,9.0,11.0,90,-99.99,,,-99.99,,2013-02-10 01:11:00,
2013-02-09 18:21:00,21.0,19.0,-100.00,WSW,250,11.0,13.0,89,-99.99,,,-99.99,,2013-02-10 01:21:00,
2013-02-09 18:31:00,21.0,19.0,-100.00,WSW,250,11.0,13.0,89,-99.99,,,-99.99,,2013-02-10 01:31:00,
2013-02-09 18:41:00,21.0,18.0,-100.00,WNW,294,8.0,15.0,89,-99.99,,,-99.99,,2013-02-10 01:41:00,
2013-02-09 18:50:00,20.0,17.0,-100.00,NW,315,6.0,8.0,87,-99.99,,,-99.99,,2013-02-10 01:50:00,
2013-02-09 18:51:00,21.0,18.0,-100.00,WNW,294,8.0,15.0,89,-99.99,,,-99.99,,2013-02-10 01:51:00,
2013-02-09 19:01:00,21.0,17.0,-100.00,NNW,331,8.0,14.0,86,-99.99,,,-99.99,,2013-02-10 02:01:00,
2013-02-09 19:11:00,21.0,17.0,-100.00,NNW,331,8.0,14.0,86,-99.99,,,-99.99,,2013-02-10 02:11:00,
2013-02-09 19:21:00,20.0,17.0,-100.00,NW,315,6.0,8.0,87,-99.99,,,-99.99,,2013-02-10 02:21:00,
2013-02-09 19:31:00,20.0,17.0,-100.00,NW,315,6.0,8.0,87,-99.99,,,-99.99,,2013-02-10 02:31:00,
2013-02-09 19:41:00,20.0,17.0,-100.00,NW,315,6.0,8.0,87,-99.99,,,-99.99,,2013-02-10 02:41:00,
2013-02-09 21:21:00,20.0,19.0,-100.00,WNW,289,8.0,9.0,94,-99.99,,,-99.99,,2013-02-10 04:21:00,
2013-02-09 21:32:00,20.0,19.0,-100.00,WNW,289,8.0,9.0,94,-99.99,,,-99.99,,2013-02-10 04:32:00,
2013-02-09 21:41:00,20.0,19.0,-100.00,WSW,254,7.0,9.0,95,-99.99,,,-99.99,,2013-02-10 04:41:00,
2013-02-09 21:51:00,20.0,19.0,-100.00,WSW,254,7.0,9.0,95,-99.99,,,-99.99,,2013-02-10 04:51:00,
2013-02-09 22:01:00,20.0,19.0,-100.00,WNW,297,10.0,15.0,93,-99.99,,,-99.99,,2013-02-10 05:01:00,
2013-02-09 22:11:00,20.0,18.0,-100.00,NW,324,6.0,11.0,91,-99.99,,,-99.99,,2013-02-10 05:11:00,
2013-02-09 22:22:00,20.0,19.0,-100.00,WSW,253,5.0,8.0,94,-99.99,,,-99.99,,2013-02-10 05:22:00,
2013-02-09 22:31:00,20.0,19.0,-100.00,WSW,258,7.0,7.0,95,-99.99,,,-99.99,,2013-02-10 05:31:00,
2013-02-09 22:41:00,20.0,19.0,-100.00,WSW,258,7.0,7.0,95,-99.99,,,-99.99,,2013-02-10 05:41:00,
2013-02-09 22:52:00,20.0,19.0,-100.00,WSW,242,8.0,9.0,94,-99.99,,,-99.99,,2013-02-10 05:52:00,
2013-02-09 23:01:00,20.0,19.0,-100.00,WSW,242,8.0,9.0,94,-99.99,,,-99.99,,2013-02-10 06:01:00,
2013-02-09 23:11:00,20.0,19.0,-100.00,West,271,8.0,10.0,96,-99.99,,,-99.99,,2013-02-10 06:11:00,
2013-02-09 23:21:00,20.0,19.0,-100.00,WSW,249,7.0,10.0,96,-99.99,,,-99.99,,2013-02-10 06:21:00,
2013-02-09 23:32:00,20.0,19.0,-100.00,WSW,249,7.0,10.0,96,-99.99,,,-99.99,,2013-02-10 06:32:00,
2013-02-09 23:42:00,20.0,19.0,-100.00,WSW,256,7.0,7.0,96,-99.99,,,-99.99,,2013-02-10 06:42:00,
2013-02-09 23:51:00,20.0,19.0,-100.00,WSW,256,7.0,7.0,96,-99.99,,,-99.99,,2013-02-10 06:51:00,